sensor_id;sensor_type;location;lat;lon;timestamp;pressure;altitude;pressure_sealevel;temperature;humidity
46782;BME280;32541;46.298;11.506;2023-09-08T00:00:09;90223.19;;;15.27;90.07
46782;BME280;32541;46.298;11.506;2023-09-08T00:02:34;90211.25;;;15.25;89.63
46782;BME280;32541;46.298;11.506;2023-09-08T00:05:00;90213.81;;;15.32;89.22
46782;BME280;32541;46.298;11.506;2023-09-08T00:07:25;90207.97;;;15.17;90.28
46782;BME280;32541;46.298;11.506;2023-09-08T00:09:51;90209.53;;;14.98;91.85
46782;BME280;32541;46.298;11.506;2023-09-08T00:12:16;90210.78;;;15.07;91.23
46782;BME280;32541;46.298;11.506;2023-09-08T00:14:42;90207.75;;;15.03;90.51
46782;BME280;32541;46.298;11.506;2023-09-08T00:17:07;90208.03;;;15.07;90.29
46782;BME280;32541;46.298;11.506;2023-09-08T00:19:33;90202.59;;;15.09;89.45
46782;BME280;32541;46.298;11.506;2023-09-08T00:21:58;90195.34;;;15.04;89.81
46782;BME280;32541;46.298;11.506;2023-09-08T00:24:24;90192.72;;;15.06;89.67
46782;BME280;32541;46.298;11.506;2023-09-08T00:26:49;90199.09;;;15.09;88.98
46782;BME280;32541;46.298;11.506;2023-09-08T00:29:14;90200.63;;;15.00;89.34
46782;BME280;32541;46.298;11.506;2023-09-08T00:31:40;90195.94;;;15.02;89.50
46782;BME280;32541;46.298;11.506;2023-09-08T00:34:06;90195.63;;;14.87;90.64
46782;BME280;32541;46.298;11.506;2023-09-08T00:36:32;90195.06;;;14.79;90.90
46782;BME280;32541;46.298;11.506;2023-09-08T00:38:57;90196.91;;;14.86;90.87
46782;BME280;32541;46.298;11.506;2023-09-08T00:41:23;90194.59;;;14.82;91.03
46782;BME280;32541;46.298;11.506;2023-09-08T00:43:49;90200.19;;;14.73;91.01
46782;BME280;32541;46.298;11.506;2023-09-08T00:46:14;90195.28;;;14.62;91.43
46782;BME280;32541;46.298;11.506;2023-09-08T00:48:41;90201.41;;;14.70;90.82
46782;BME280;32541;46.298;11.506;2023-09-08T00:51:08;90195.69;;;14.68;90.88
46782;BME280;32541;46.298;11.506;2023-09-08T00:53:35;90193.09;;;14.70;90.84
46782;BME280;32541;46.298;11.506;2023-09-08T00:56:00;90193.09;;;14.70;91.25
46782;BME280;32541;46.298;11.506;2023-09-08T00:58:27;90193.84;;;14.61;91.04
46782;BME280;32541;46.298;11.506;2023-09-08T01:00:52;90191.22;;;14.63;91.17
46782;BME280;32541;46.298;11.506;2023-09-08T01:03:18;90193.84;;;14.61;91.26
46782;BME280;32541;46.298;11.506;2023-09-08T01:05:44;90197.34;;;14.61;91.08
46782;BME280;32541;46.298;11.506;2023-09-08T01:08:12;90192.13;;;14.56;90.99
46782;BME280;32541;46.298;11.506;2023-09-08T01:10:38;90191.72;;;14.50;90.97
46782;BME280;32541;46.298;11.506;2023-09-08T01:13:04;90197.25;;;14.50;91.23
46782;BME280;32541;46.298;11.506;2023-09-08T01:15:29;90192.88;;;14.46;90.90
46782;BME280;32541;46.298;11.506;2023-09-08T01:17:55;90188.00;;;14.35;91.84
46782;BME280;32541;46.298;11.506;2023-09-08T01:20:23;90189.56;;;14.38;91.17
46782;BME280;32541;46.298;11.506;2023-09-08T01:25:28;90192.34;;;14.38;91.41
46782;BME280;32541;46.298;11.506;2023-09-08T01:27:57;90184.50;;;14.35;92.23
46782;BME280;32541;46.298;11.506;2023-09-08T01:30:26;90190.59;;;14.43;91.37
46782;BME280;32541;46.298;11.506;2023-09-08T01:32:54;90188.00;;;14.35;92.63
46782;BME280;32541;46.298;11.506;2023-09-08T01:35:20;90189.56;;;14.38;92.04
46782;BME280;32541;46.298;11.506;2023-09-08T01:37:47;90192.47;;;14.40;91.90
46782;BME280;32541;46.298;11.506;2023-09-08T01:40:14;90184.03;;;14.38;91.62
46782;BME280;32541;46.298;11.506;2023-09-08T01:42:40;90192.22;;;14.36;91.73
46782;BME280;32541;46.298;11.506;2023-09-08T01:45:06;90179.84;;;14.28;92.08
46782;BME280;32541;46.298;11.506;2023-09-08T01:47:32;90181.00;;;14.34;91.54
46782;BME280;32541;46.298;11.506;2023-09-08T01:49:57;90176.19;;;14.25;91.64
46782;BME280;32541;46.298;11.506;2023-09-08T01:52:24;90176.09;;;14.14;93.39
46782;BME280;32541;46.298;11.506;2023-09-08T01:54:49;90167.78;;;14.14;93.00
46782;BME280;32541;46.298;11.506;2023-09-08T01:57:15;90165.75;;;14.14;92.89
46782;BME280;32541;46.298;11.506;2023-09-08T01:59:40;90176.41;;;14.08;92.86
46782;BME280;32541;46.298;11.506;2023-09-08T02:02:05;90172.63;;;14.13;92.63
46782;BME280;32541;46.298;11.506;2023-09-08T02:04:31;90166.19;;;14.11;92.49
46782;BME280;32541;46.298;11.506;2023-09-08T02:06:57;90166.03;;;14.18;91.93
46782;BME280;32541;46.298;11.506;2023-09-08T02:09:32;90163.75;;;14.05;92.58
46782;BME280;32541;46.298;11.506;2023-09-08T02:11:59;90164.16;;;14.11;92.20
46782;BME280;32541;46.298;11.506;2023-09-08T02:14:24;90155.31;;;14.03;93.22
46782;BME280;32541;46.298;11.506;2023-09-08T02:16:50;90154.84;;;14.16;92.68
46782;BME280;32541;46.298;11.506;2023-09-08T02:19:15;90151.81;;;14.12;93.04
46782;BME280;32541;46.298;11.506;2023-09-08T02:21:40;90157.38;;;13.93;93.25
46782;BME280;32541;46.298;11.506;2023-09-08T02:24:06;90145.91;;;13.87;93.65
46782;BME280;32541;46.298;11.506;2023-09-08T02:26:31;90147.69;;;13.82;93.90
46782;BME280;32541;46.298;11.506;2023-09-08T02:28:59;90150.84;;;13.98;93.22
46782;BME280;32541;46.298;11.506;2023-09-08T02:31:24;90150.75;;;13.77;95.09
46782;BME280;32541;46.298;11.506;2023-09-08T02:33:49;90149.00;;;13.72;95.56
46782;BME280;32541;46.298;11.506;2023-09-08T02:36:15;90146.38;;;13.74;95.50
46782;BME280;32541;46.298;11.506;2023-09-08T02:38:40;90148.72;;;13.77;95.55
46782;BME280;32541;46.298;11.506;2023-09-08T02:41:05;90152.34;;;13.70;95.95
46782;BME280;32541;46.298;11.506;2023-09-08T02:43:31;90153.53;;;13.67;96.15
46782;BME280;32541;46.298;11.506;2023-09-08T02:45:56;90151.63;;;13.70;95.44
46782;BME280;32541;46.298;11.506;2023-09-08T02:48:21;90152.34;;;13.70;94.56
46782;BME280;32541;46.298;11.506;2023-09-08T02:50:48;90152.22;;;13.59;95.45
46782;BME280;32541;46.298;11.506;2023-09-08T02:53:14;90146.84;;;13.61;95.11
46782;BME280;32541;46.298;11.506;2023-09-08T02:55:39;90143.50;;;13.62;94.80
46782;BME280;32541;46.298;11.506;2023-09-08T02:58:04;90152.53;;;13.63;94.42
46782;BME280;32541;46.298;11.506;2023-09-08T03:00:30;90149.78;;;13.53;95.24
46782;BME280;32541;46.298;11.506;2023-09-08T03:02:55;90145.56;;;13.52;95.17
46782;BME280;32541;46.298;11.506;2023-09-08T03:05:20;90149.47;;;13.49;96.00
46782;BME280;32541;46.298;11.506;2023-09-08T03:07:49;90149.19;;;13.45;96.34
46782;BME280;32541;46.298;11.506;2023-09-08T03:10:14;90149.34;;;13.47;96.08
46782;BME280;32541;46.298;11.506;2023-09-08T03:12:41;90148.91;;;13.51;96.52
46782;BME280;32541;46.298;11.506;2023-09-08T03:15:06;90152.84;;;13.48;95.82
46782;BME280;32541;46.298;11.506;2023-09-08T03:17:32;90152.53;;;13.44;97.30
46782;BME280;32541;46.298;11.506;2023-09-08T03:19:57;90143.81;;;13.38;96.98
46782;BME280;32541;46.298;11.506;2023-09-08T03:22:22;90145.28;;;13.39;96.77
46782;BME280;32541;46.298;11.506;2023-09-08T03:24:50;90146.72;;;13.40;96.42
46782;BME280;32541;46.298;11.506;2023-09-08T03:27:15;90150.09;;;13.38;96.08
46782;BME280;32541;46.298;11.506;2023-09-08T03:29:40;90147.88;;;13.36;96.18
46782;BME280;32541;46.298;11.506;2023-09-08T03:32:06;90141.19;;;13.40;95.85
46782;BME280;32541;46.298;11.506;2023-09-08T03:34:31;90149.34;;;13.38;95.75
46782;BME280;32541;46.298;11.506;2023-09-08T03:36:56;90139.75;;;13.39;95.57
46782;BME280;32541;46.298;11.506;2023-09-08T03:39:22;90149.50;;;13.40;95.55
46782;BME280;32541;46.298;11.506;2023-09-08T03:41:47;90142.38;;;13.36;95.31
46782;BME280;32541;46.298;11.506;2023-09-08T03:44:12;90142.38;;;13.36;95.36
46782;BME280;32541;46.298;11.506;2023-09-08T03:46:38;90140.94;;;13.35;95.01
46782;BME280;32541;46.298;11.506;2023-09-08T03:49:03;90137.75;;;13.29;95.76
46782;BME280;32541;46.298;11.506;2023-09-08T03:51:29;90134.69;;;13.35;95.68
46782;BME280;32541;46.298;11.506;2023-09-08T03:53:54;90140.50;;;13.29;96.06
46782;BME280;32541;46.298;11.506;2023-09-08T03:56:20;90138.59;;;13.32;95.83
46782;BME280;32541;46.298;11.506;2023-09-08T03:58:48;90137.56;;;13.27;96.05
46782;BME280;32541;46.298;11.506;2023-09-08T04:01:14;90137.31;;;13.23;96.31
46782;BME280;32541;46.298;11.506;2023-09-08T04:03:39;90136.44;;;13.21;96.25
46782;BME280;32541;46.298;11.506;2023-09-08T04:06:04;90144.69;;;13.30;96.02
46782;BME280;32541;46.298;11.506;2023-09-08T04:08:30;90137.75;;;13.29;96.21
46782;BME280;32541;46.298;11.506;2023-09-08T04:10:55;90136.44;;;13.21;96.17
46782;BME280;32541;46.298;11.506;2023-09-08T04:13:20;90141.66;;;13.17;96.65
46782;BME280;32541;46.298;11.506;2023-09-08T04:15:46;90135.72;;;13.20;96.38
46782;BME280;32541;46.298;11.506;2023-09-08T04:18:11;90134.84;;;13.18;97.06
46782;BME280;32541;46.298;11.506;2023-09-08T04:20:36;90140.66;;;13.12;97.47
46782;BME280;32541;46.298;11.506;2023-09-08T04:23:02;90137.75;;;13.10;98.02
46782;BME280;32541;46.298;11.506;2023-09-08T04:25:27;90138.88;;;13.07;98.17
46782;BME280;32541;46.298;11.506;2023-09-08T04:27:52;90141.38;;;13.03;98.40
46782;BME280;32541;46.298;11.506;2023-09-08T04:30:18;90145.28;;;13.00;98.31
46782;BME280;32541;46.298;11.506;2023-09-08T04:32:43;90144.25;;;12.96;98.32
46782;BME280;32541;46.298;11.506;2023-09-08T04:35:09;90144.38;;;12.98;98.03
46782;BME280;32541;46.298;11.506;2023-09-08T04:37:35;90149.19;;;12.97;98.15
46782;BME280;32541;46.298;11.506;2023-09-08T04:40:02;90152.09;;;12.99;98.51
46782;BME280;32541;46.298;11.506;2023-09-08T04:42:27;90151.22;;;12.97;98.37
46782;BME280;32541;46.298;11.506;2023-09-08T04:44:52;90152.81;;;12.90;98.32
46782;BME280;32541;46.298;11.506;2023-09-08T04:47:18;90150.50;;;12.96;98.04
46782;BME280;32541;46.298;11.506;2023-09-08T04:49:44;90151.81;;;12.95;97.96
46782;BME280;32541;46.298;11.506;2023-09-08T04:52:09;90150.38;;;12.94;97.68
46782;BME280;32541;46.298;11.506;2023-09-08T04:54:37;90152.09;;;12.90;98.15
46782;BME280;32541;46.298;11.506;2023-09-08T04:57:03;90157.16;;;12.83;98.60
46782;BME280;32541;46.298;11.506;2023-09-08T04:59:28;90152.81;;;12.90;98.48
46782;BME280;32541;46.298;11.506;2023-09-08T05:01:54;90145.41;;;12.93;98.15
46782;BME280;32541;46.298;11.506;2023-09-08T05:04:19;90146.44;;;12.97;97.70
46782;BME280;32541;46.298;11.506;2023-09-08T05:06:45;90142.94;;;12.87;98.53
46782;BME280;32541;46.298;11.506;2023-09-08T05:09:10;90147.00;;;12.86;98.48
46782;BME280;32541;46.298;11.506;2023-09-08T05:11:35;90146.13;;;12.93;98.29
46782;BME280;32541;46.298;11.506;2023-09-08T05:14:01;90136.84;;;12.98;98.15
46782;BME280;32541;46.298;11.506;2023-09-08T05:16:27;90136.69;;;12.96;98.77
46782;BME280;32541;46.298;11.506;2023-09-08T05:19:05;90140.19;;;12.97;98.78
46782;BME280;32541;46.298;11.506;2023-09-08T05:21:32;90140.63;;;12.93;98.92
46782;BME280;32541;46.298;11.506;2023-09-08T05:23:57;90142.34;;;12.98;98.52
46782;BME280;32541;46.298;11.506;2023-09-08T05:26:23;90149.19;;;12.97;98.76
46782;BME280;32541;46.298;11.506;2023-09-08T05:28:48;90150.50;;;13.06;98.38
46782;BME280;32541;46.298;11.506;2023-09-08T05:31:13;90149.47;;;13.01;98.63
46782;BME280;32541;46.298;11.506;2023-09-08T05:33:39;90146.44;;;12.97;98.83
46782;BME280;32541;46.298;11.506;2023-09-08T05:36:04;90142.22;;;12.96;99.82
46782;BME280;32541;46.298;11.506;2023-09-08T05:38:30;90149.03;;;13.05;99.04
46782;BME280;32541;46.298;11.506;2023-09-08T05:40:55;90143.13;;;13.08;98.78
46782;BME280;32541;46.298;11.506;2023-09-08T05:43:21;90147.03;;;13.05;99.13
46782;BME280;32541;46.298;11.506;2023-09-08T05:45:46;90147.03;;;13.05;99.03
46782;BME280;32541;46.298;11.506;2023-09-08T05:48:11;90146.63;;;13.09;98.95
46782;BME280;32541;46.298;11.506;2023-09-08T05:50:37;90146.63;;;13.09;98.87
46782;BME280;32541;46.298;11.506;2023-09-08T05:53:02;90158.41;;;13.09;99.20
46782;BME280;32541;46.298;11.506;2023-09-08T05:55:28;90151.72;;;13.12;99.01
46782;BME280;32541;46.298;11.506;2023-09-08T05:57:54;90151.97;;;13.16;98.83
46782;BME280;32541;46.298;11.506;2023-09-08T06:00:19;90145.88;;;13.27;98.71
46782;BME280;32541;46.298;11.506;2023-09-08T06:02:45;90145.16;;;13.27;99.19
46782;BME280;32541;46.298;11.506;2023-09-08T06:05:11;90145.59;;;13.33;98.93
46782;BME280;32541;46.298;11.506;2023-09-08T06:07:36;90151.38;;;13.37;99.22
46782;BME280;32541;46.298;11.506;2023-09-08T06:10:02;90152.25;;;13.40;99.00
46782;BME280;32541;46.298;11.506;2023-09-08T06:12:28;90152.53;;;13.44;98.97
46782;BME280;32541;46.298;11.506;2023-09-08T06:14:54;90153.53;;;13.48;98.41
46782;BME280;32541;46.298;11.506;2023-09-08T06:17:19;90157.91;;;13.51;98.55
46782;BME280;32541;46.298;11.506;2023-09-08T06:19:45;90150.22;;;13.50;99.14
46782;BME280;32541;46.298;11.506;2023-09-08T06:22:11;90154.13;;;13.56;99.23
46782;BME280;32541;46.298;11.506;2023-09-08T06:24:37;90152.38;;;13.51;99.94
46782;BME280;32541;46.298;11.506;2023-09-08T06:27:03;90149.78;;;13.53;99.96
46782;BME280;32541;46.298;11.506;2023-09-08T06:29:28;90149.19;;;13.55;99.74
46782;BME280;32541;46.298;11.506;2023-09-08T06:31:54;90147.44;;;13.59;99.80
46782;BME280;32541;46.298;11.506;2023-09-08T06:34:19;90138.84;;;13.65;99.62
46782;BME280;32541;46.298;11.506;2023-09-08T06:36:47;90133.31;;;13.65;99.23
46782;BME280;32541;46.298;11.506;2023-09-08T06:39:13;90141.91;;;13.69;99.34
46782;BME280;32541;46.298;11.506;2023-09-08T06:41:38;90144.34;;;13.74;99.55
46782;BME280;32541;46.298;11.506;2023-09-08T06:44:04;90149.84;;;13.84;99.21
46782;BME280;32541;46.298;11.506;2023-09-08T06:46:29;90147.50;;;13.90;99.05
46782;BME280;32541;46.298;11.506;2023-09-08T06:48:55;90135.25;;;13.93;99.63
46782;BME280;32541;46.298;11.506;2023-09-08T06:51:20;90140.19;;;14.04;99.01
46782;BME280;32541;46.298;11.506;2023-09-08T06:53:54;90139.28;;;14.11;99.06
46782;BME280;32541;46.298;11.506;2023-09-08T06:56:20;90141.41;;;14.22;98.80
46782;BME280;32541;46.298;11.506;2023-09-08T06:58:45;90144.56;;;14.38;99.05
46782;BME280;32541;46.298;11.506;2023-09-08T07:01:11;90142.91;;;14.54;98.64
46782;BME280;32541;46.298;11.506;2023-09-08T07:03:36;90144.97;;;14.75;98.10
46782;BME280;32541;46.298;11.506;2023-09-08T07:06:02;90145.97;;;15.00;97.71
46782;BME280;32541;46.298;11.506;2023-09-08T07:08:27;90137.69;;;15.33;97.88
46782;BME280;32541;46.298;11.506;2023-09-08T07:10:53;90137.63;;;15.76;96.30
46782;BME280;32541;46.298;11.506;2023-09-08T07:13:19;90140.25;;;16.18;95.21
46782;BME280;32541;46.298;11.506;2023-09-08T07:15:44;90133.16;;;16.61;93.01
46782;BME280;32541;46.298;11.506;2023-09-08T07:18:10;90128.28;;;17.08;90.17
46782;BME280;32541;46.298;11.506;2023-09-08T07:20:35;90128.63;;;17.63;85.66
46782;BME280;32541;46.298;11.506;2023-09-08T07:23:00;90133.44;;;18.13;82.54
46782;BME280;32541;46.298;11.506;2023-09-08T07:25:26;90127.88;;;18.52;80.48
46782;BME280;32541;46.298;11.506;2023-09-08T07:27:51;90132.00;;;18.92;78.43
46782;BME280;32541;46.298;11.506;2023-09-08T07:30:19;90137.38;;;19.28;76.55
46782;BME280;32541;46.298;11.506;2023-09-08T07:32:44;90130.91;;;19.67;74.79
46782;BME280;32541;46.298;11.506;2023-09-08T07:35:09;90137.44;;;20.01;71.56
46782;BME280;32541;46.298;11.506;2023-09-08T07:37:39;90136.50;;;20.25;70.40
46782;BME280;32541;46.298;11.506;2023-09-08T07:40:06;90135.91;;;20.42;67.36
46782;BME280;32541;46.298;11.506;2023-09-08T07:42:32;90137.09;;;20.53;66.59
46782;BME280;32541;46.298;11.506;2023-09-08T07:44:57;90133.19;;;20.29;65.25
46782;BME280;32541;46.298;11.506;2023-09-08T07:47:22;90134.44;;;19.96;66.69
46782;BME280;32541;46.298;11.506;2023-09-08T07:49:48;90137.06;;;20.37;66.08
46782;BME280;32541;46.298;11.506;2023-09-08T07:52:13;90122.03;;;20.44;66.92
46782;BME280;32541;46.298;11.506;2023-09-08T07:54:39;90127.16;;;20.34;68.17
46782;BME280;32541;46.298;11.506;2023-09-08T07:57:04;90136.53;;;20.41;66.79
46782;BME280;32541;46.298;11.506;2023-09-08T07:59:29;90134.09;;;20.33;66.14
46782;BME280;32541;46.298;11.506;2023-09-08T08:01:55;90135.84;;;20.72;66.06
46782;BME280;32541;46.298;11.506;2023-09-08T08:04:20;90140.34;;;20.79;64.55
46782;BME280;32541;46.298;11.506;2023-09-08T08:06:45;90127.44;;;21.19;63.02
46782;BME280;32541;46.298;11.506;2023-09-08T08:09:12;90135.81;;;21.03;63.34
46782;BME280;32541;46.298;11.506;2023-09-08T08:11:37;90135.84;;;20.56;65.00
46782;BME280;32541;46.298;11.506;2023-09-08T08:14:03;90125.03;;;21.11;62.18
46782;BME280;32541;46.298;11.506;2023-09-08T08:16:28;90129.16;;;20.94;61.22
46782;BME280;32541;46.298;11.506;2023-09-08T08:18:54;90120.28;;;21.31;61.47
46782;BME280;32541;46.298;11.506;2023-09-08T08:21:19;90129.88;;;20.48;62.71
46782;BME280;32541;46.298;11.506;2023-09-08T08:23:44;90131.34;;;20.80;61.90
46782;BME280;32541;46.298;11.506;2023-09-08T08:26:10;90133.22;;;20.44;62.58
46782;BME280;32541;46.298;11.506;2023-09-08T08:28:35;90132.41;;;20.89;60.78
46782;BME280;32541;46.298;11.506;2023-09-08T08:31:00;90113.50;;;21.36;60.21
46782;BME280;32541;46.298;11.506;2023-09-08T08:33:26;90118.88;;;21.81;58.59
46782;BME280;32541;46.298;11.506;2023-09-08T08:35:52;90115.31;;;21.96;58.12
46782;BME280;32541;46.298;11.506;2023-09-08T08:38:18;90117.28;;;21.76;58.11
46782;BME280;32541;46.298;11.506;2023-09-08T08:40:44;90112.53;;;21.63;58.93
46782;BME280;32541;46.298;11.506;2023-09-08T08:43:09;90112.19;;;21.06;61.94
46782;BME280;32541;46.298;11.506;2023-09-08T08:45:37;90109.91;;;21.67;61.33
46782;BME280;32541;46.298;11.506;2023-09-08T08:48:03;90102.44;;;21.74;59.62
46782;BME280;32541;46.298;11.506;2023-09-08T08:50:30;90108.09;;;22.27;59.93
46782;BME280;32541;46.298;11.506;2023-09-08T08:52:56;90098.22;;;22.81;58.05
46782;BME280;32541;46.298;11.506;2023-09-08T08:55:24;90096.00;;;22.77;57.55
46782;BME280;32541;46.298;11.506;2023-09-08T08:57:50;90094.69;;;22.43;56.66
46782;BME280;32541;46.298;11.506;2023-09-08T09:00:16;90094.50;;;22.74;55.57
46782;BME280;32541;46.298;11.506;2023-09-08T09:02:44;90089.91;;;23.22;55.78
46782;BME280;32541;46.298;11.506;2023-09-08T09:05:13;90091.13;;;23.17;54.13
46782;BME280;32541;46.298;11.506;2023-09-08T09:07:42;90094.94;;;23.25;55.49
46782;BME280;32541;46.298;11.506;2023-09-08T09:10:08;90084.72;;;23.54;53.97
46782;BME280;32541;46.298;11.506;2023-09-08T09:12:33;90089.28;;;23.65;53.11
46782;BME280;32541;46.298;11.506;2023-09-08T09:15:00;90086.75;;;22.55;54.71
46782;BME280;32541;46.298;11.506;2023-09-08T09:17:29;90078.31;;;22.18;56.74
46782;BME280;32541;46.298;11.506;2023-09-08T09:20:15;90083.84;;;22.15;57.06
46782;BME280;32541;46.298;11.506;2023-09-08T09:22:43;90082.31;;;22.12;56.12
46782;BME280;32541;46.298;11.506;2023-09-08T09:25:09;90078.38;;;21.84;56.62
46782;BME280;32541;46.298;11.506;2023-09-08T09:27:35;90073.44;;;22.00;57.22
46782;BME280;32541;46.298;11.506;2023-09-08T09:30:03;90071.50;;;22.60;56.27
46782;BME280;32541;46.298;11.506;2023-09-08T09:32:28;90068.31;;;23.27;56.21
46782;BME280;32541;46.298;11.506;2023-09-08T09:34:56;90066.31;;;22.90;57.83
46782;BME280;32541;46.298;11.506;2023-09-08T09:37:23;90067.16;;;23.34;55.72
46782;BME280;32541;46.298;11.506;2023-09-08T09:39:49;90070.34;;;22.85;55.47
46782;BME280;32541;46.298;11.506;2023-09-08T09:42:15;90062.28;;;22.75;55.61
46782;BME280;32541;46.298;11.506;2023-09-08T09:44:40;90060.41;;;23.21;57.02
46782;BME280;32541;46.298;11.506;2023-09-08T09:47:06;90061.03;;;23.81;54.56
46782;BME280;32541;46.298;11.506;2023-09-08T09:49:43;90061.53;;;23.53;54.89
46782;BME280;32541;46.298;11.506;2023-09-08T09:52:11;90052.22;;;23.90;54.30
46782;BME280;32541;46.298;11.506;2023-09-08T09:54:42;90050.00;;;24.32;53.64
46782;BME280;32541;46.298;11.506;2023-09-08T09:57:10;90051.34;;;25.00;53.83
46782;BME280;32541;46.298;11.506;2023-09-08T09:59:37;90042.50;;;24.39;51.74
46782;BME280;32541;46.298;11.506;2023-09-08T10:02:03;90051.03;;;23.54;54.05
46782;BME280;32541;46.298;11.506;2023-09-08T10:04:29;90049.47;;;23.92;55.50
46782;BME280;32541;46.298;11.506;2023-09-08T10:06:55;90039.13;;;24.44;55.49
46782;BME280;32541;46.298;11.506;2023-09-08T10:09:23;90043.25;;;24.88;54.08
46782;BME280;32541;46.298;11.506;2023-09-08T10:11:49;90038.19;;;24.83;52.82
46782;BME280;32541;46.298;11.506;2023-09-08T10:14:16;90038.31;;;23.72;54.26
46782;BME280;32541;46.298;11.506;2023-09-08T10:16:44;90038.69;;;23.21;55.70
46782;BME280;32541;46.298;11.506;2023-09-08T10:19:11;90036.78;;;23.91;54.41
46782;BME280;32541;46.298;11.506;2023-09-08T10:21:41;90038.53;;;24.48;54.76
46782;BME280;32541;46.298;11.506;2023-09-08T10:24:21;90028.22;;;24.80;51.43
46782;BME280;32541;46.298;11.506;2023-09-08T10:26:56;90036.91;;;23.95;54.54
46782;BME280;32541;46.298;11.506;2023-09-08T10:29:24;90031.91;;;24.61;54.51
46782;BME280;32541;46.298;11.506;2023-09-08T10:31:50;90022.81;;;24.86;51.96
46782;BME280;32541;46.298;11.506;2023-09-08T10:34:17;90021.81;;;24.52;52.50
46782;BME280;32541;46.298;11.506;2023-09-08T10:36:43;90025.69;;;23.52;55.16
46782;BME280;32541;46.298;11.506;2023-09-08T10:39:30;90024.75;;;22.84;56.82
46782;BME280;32541;46.298;11.506;2023-09-08T10:44:43;90019.25;;;23.08;56.10
46782;BME280;32541;46.298;11.506;2023-09-08T10:47:09;90015.38;;;23.17;56.00
46782;BME280;32541;46.298;11.506;2023-09-08T10:49:35;90006.06;;;22.91;56.81
46782;BME280;32541;46.298;11.506;2023-09-08T10:52:11;90013.50;;;23.23;55.65
46782;BME280;32541;46.298;11.506;2023-09-08T10:54:44;90011.50;;;23.06;55.64
46782;BME280;32541;46.298;11.506;2023-09-08T10:57:13;90006.34;;;23.40;55.67
46782;BME280;32541;46.298;11.506;2023-09-08T10:59:40;90009.56;;;23.52;54.95
46782;BME280;32541;46.298;11.506;2023-09-08T11:02:05;90015.13;;;23.72;54.09
46782;BME280;32541;46.298;11.506;2023-09-08T11:04:31;90005.22;;;24.14;54.64
46782;BME280;32541;46.298;11.506;2023-09-08T11:06:57;89995.44;;;24.65;53.04
46782;BME280;32541;46.298;11.506;2023-09-08T11:09:22;90001.25;;;25.20;53.71
46782;BME280;32541;46.298;11.506;2023-09-08T11:11:49;89986.41;;;25.46;49.89
46782;BME280;32541;46.298;11.506;2023-09-08T11:14:14;89994.00;;;25.67;50.68
46782;BME280;32541;46.298;11.506;2023-09-08T11:16:40;89994.59;;;25.35;51.61
46782;BME280;32541;46.298;11.506;2023-09-08T11:19:05;89998.94;;;24.40;52.43
46782;BME280;32541;46.298;11.506;2023-09-08T11:21:31;90008.53;;;24.30;53.12
46782;BME280;32541;46.298;11.506;2023-09-08T11:24:03;89995.75;;;24.75;51.55
46782;BME280;32541;46.298;11.506;2023-09-08T11:26:35;90002.28;;;24.81;52.59
46782;BME280;32541;46.298;11.506;2023-09-08T11:29:09;90000.56;;;24.70;52.88
46782;BME280;32541;46.298;11.506;2023-09-08T11:31:34;89994.97;;;24.96;51.90
46782;BME280;32541;46.298;11.506;2023-09-08T11:34:00;90003.06;;;24.84;51.55
46782;BME280;32541;46.298;11.506;2023-09-08T11:36:25;90001.09;;;25.42;51.26
46782;BME280;32541;46.298;11.506;2023-09-08T11:38:52;90001.38;;;25.80;50.35
46782;BME280;32541;46.298;11.506;2023-09-08T11:41:17;89993.34;;;25.98;48.52
46782;BME280;32541;46.298;11.506;2023-09-08T11:43:43;89991.38;;;25.75;49.47
46782;BME280;32541;46.298;11.506;2023-09-08T11:46:08;89991.00;;;25.33;50.50
46782;BME280;32541;46.298;11.506;2023-09-08T11:48:35;89980.03;;;25.45;50.30
46782;BME280;32541;46.298;11.506;2023-09-08T11:51:01;90000.97;;;25.64;50.60
46782;BME280;32541;46.298;11.506;2023-09-08T11:53:27;89991.72;;;25.89;49.94
46782;BME280;32541;46.298;11.506;2023-09-08T11:55:52;89994.31;;;26.11;48.88
46782;BME280;32541;46.298;11.506;2023-09-08T11:58:18;89992.41;;;26.17;47.99
46782;BME280;32541;46.298;11.506;2023-09-08T12:00:45;89991.75;;;25.61;49.83
46782;BME280;32541;46.298;11.506;2023-09-08T12:03:14;89984.53;;;25.84;50.88
46782;BME280;32541;46.298;11.506;2023-09-08T12:05:40;89983.41;;;25.65;48.94
46782;BME280;32541;46.298;11.506;2023-09-08T12:08:07;89981.84;;;25.32;50.46
46782;BME280;32541;46.298;11.506;2023-09-08T12:10:42;89989.38;;;25.79;51.01
46782;BME280;32541;46.298;11.506;2023-09-08T12:13:08;89986.03;;;25.87;49.34
46782;BME280;32541;46.298;11.506;2023-09-08T12:15:38;89980.03;;;26.01;47.57
46782;BME280;32541;46.298;11.506;2023-09-08T12:18:06;89985.94;;;25.83;49.09
46782;BME280;32541;46.298;11.506;2023-09-08T12:20:33;89982.28;;;25.49;49.22
46782;BME280;32541;46.298;11.506;2023-09-08T12:23:21;89980.09;;;25.19;51.05
46782;BME280;32541;46.298;11.506;2023-09-08T12:25:49;89981.78;;;25.30;51.80
46782;BME280;32541;46.298;11.506;2023-09-08T12:28:16;89981.50;;;24.93;51.21
46782;BME280;32541;46.298;11.506;2023-09-08T12:30:42;89985.50;;;24.85;52.12
46782;BME280;32541;46.298;11.506;2023-09-08T12:33:08;89979.06;;;24.81;50.91
46782;BME280;32541;46.298;11.506;2023-09-08T12:35:35;89973.22;;;24.99;51.14
46782;BME280;32541;46.298;11.506;2023-09-08T12:38:02;89988.59;;;24.96;51.29
46782;BME280;32541;46.298;11.506;2023-09-08T12:40:30;89978.00;;;24.45;50.96
46782;BME280;32541;46.298;11.506;2023-09-08T12:42:56;89968.63;;;24.85;51.49
46782;BME280;32541;46.298;11.506;2023-09-08T12:45:23;89970.03;;;25.38;52.65
46782;BME280;32541;46.298;11.506;2023-09-08T12:47:49;89970.13;;;25.70;50.14
46782;BME280;32541;46.298;11.506;2023-09-08T12:50:14;89977.28;;;26.05;47.92